Time,TemperatureF,DewpointF,PressureIn,WindDirection,WindDirectionDegrees,WindSpeedMPH,WindSpeedGustMPH,Humidity,HourlyPrecipIn,Conditions,Clouds,dailyrainin,SoftwareType,DateUTC
2014-12-17 00:00:00,33.4,32.6,29.97,NE,53,0.0,0.0,97,0.00,,,0.00,Wunderground v.1.15,2014-12-17 05:00:00,
2014-12-17 00:05:00,33.4,32.6,29.97,NE,53,0.0,0.0,97,0.00,,,0.00,Wunderground v.1.15,2014-12-17 05:05:00,
2014-12-17 00:10:00,33.3,32.5,29.97,NE,53,0.0,0.0,97,0.00,,,0.00,Wunderground v.1.15,2014-12-17 05:10:00,
2014-12-17 00:15:00,33.3,32.5,29.97,NE,53,0.0,0.0,97,0.00,,,0.00,Wunderground v.1.15,2014-12-17 05:15:00,
2014-12-17 00:20:00,33.3,32.5,29.97,NE,53,0.0,0.0,97,0.00,,,0.00,Wunderground v.1.15,2014-12-17 05:20:00,
2014-12-17 00:25:00,33.3,32.5,29.97,NE,53,0.0,0.0,97,0.00,,,0.00,Wunderground v.1.15,2014-12-17 05:25:00,
2014-12-17 00:30:00,33.3,32.5,29.97,NE,53,0.0,0.0,97,0.00,,,0.00,Wunderground v.1.15,2014-12-17 05:30:00,
2014-12-17 00:35:00,33.4,32.6,29.96,NE,53,0.0,0.0,97,0.00,,,0.00,Wunderground v.1.15,2014-12-17 05:35:00,
2014-12-17 00:40:00,33.4,32.6,29.96,NE,53,0.0,0.0,97,0.00,,,0.00,Wunderground v.1.15,2014-12-17 05:40:00,
2014-12-17 00:45:00,33.4,32.6,29.96,NE,53,0.0,0.0,97,0.00,,,0.00,Wunderground v.1.15,2014-12-17 05:45:00,
2014-12-17 00:50:00,33.4,32.6,29.95,NE,53,0.0,0.0,97,0.00,,,0.00,Wunderground v.1.15,2014-12-17 05:50:00,
2014-12-17 00:55:00,33.4,32.6,29.96,NE,53,0.0,2.0,97,0.00,,,0.00,Wunderground v.1.15,2014-12-17 05:55:00,
2014-12-17 01:00:00,33.4,32.6,29.96,NE,53,0.0,0.0,97,0.00,,,0.00,Wunderground v.1.15,2014-12-17 06:00:00,
2014-12-17 01:05:00,33.5,33.0,29.95,NE,53,0.0,1.0,98,0.00,,,0.00,Wunderground v.1.15,2014-12-17 06:05:00,
2014-12-17 01:10:00,33.6,33.1,29.95,NE,53,0.0,0.0,98,0.00,,,0.00,Wunderground v.1.15,2014-12-17 06:10:00,
2014-12-17 01:15:00,33.5,33.0,29.95,NE,53,0.0,2.0,98,0.00,,,0.00,Wunderground v.1.15,2014-12-17 06:15:00,
2014-12-17 01:20:00,33.5,33.0,29.94,NE,53,0.0,2.0,98,0.00,,,0.00,Wunderground v.1.15,2014-12-17 06:20:00,
2014-12-17 01:25:00,33.5,33.0,29.94,NE,53,0.0,0.0,98,0.00,,,0.00,Wunderground v.1.15,2014-12-17 06:25:00,
2014-12-17 01:30:00,33.5,33.0,29.94,NE,53,0.0,1.0,98,0.00,,,0.00,Wunderground v.1.15,2014-12-17 06:30:00,
2014-12-17 01:35:00,33.6,32.8,29.94,NE,53,1.0,2.0,97,0.00,,,0.00,Wunderground v.1.15,2014-12-17 06:35:00,
2014-12-17 01:40:00,33.6,33.1,29.94,NE,50,1.0,3.0,98,0.00,,,0.00,Wunderground v.1.15,2014-12-17 06:40:00,
2014-12-17 01:45:00,33.6,32.8,29.93,NE,44,3.0,4.0,97,0.00,,,0.00,Wunderground v.1.15,2014-12-17 06:45:00,
2014-12-17 01:49:00,33.8,33.3,29.93,NE,44,2.0,4.0,98,0.00,,,0.00,Wunderground v.1.15,2014-12-17 06:49:00,
2014-12-17 01:54:00,33.8,33.3,29.93,North,5,2.0,6.0,98,0.00,,,0.00,Wunderground v.1.15,2014-12-17 06:54:00,
2014-12-17 01:59:00,33.9,33.4,29.93,North,5,0.0,6.0,98,0.00,,,0.00,Wunderground v.1.15,2014-12-17 06:59:00,
2014-12-17 02:04:00,34.0,33.5,29.93,NNE,17,2.0,5.0,98,0.00,,,0.00,Wunderground v.1.15,2014-12-17 07:04:00,
2014-12-17 02:09:00,34.2,33.7,29.93,NNE,22,1.0,5.0,98,0.00,,,0.00,Wunderground v.1.15,2014-12-17 07:09:00,
2014-12-17 02:14:00,34.2,33.7,29.93,NNE,21,0.0,3.0,98,0.00,,,0.00,Wunderground v.1.15,2014-12-17 07:14:00,
2014-12-17 02:19:00,34.3,33.8,29.93,NE,55,0.0,5.0,98,0.00,,,0.00,Wunderground v.1.15,2014-12-17 07:19:00,
2014-12-17 02:24:00,34.3,33.8,29.93,NE,53,1.0,4.0,98,0.00,,,0.00,Wunderground v.1.15,2014-12-17 07:24:00,
2014-12-17 02:29:00,34.4,33.9,29.93,NE,44,2.0,4.0,98,0.00,,,0.00,Wunderground v.1.15,2014-12-17 07:29:00,
2014-12-17 02:34:00,34.4,33.9,29.93,NNE,30,1.0,5.0,98,0.00,,,0.00,Wunderground v.1.15,2014-12-17 07:34:00,
2014-12-17 02:39:00,34.5,34.0,29.92,NE,34,3.0,5.0,98,0.00,,,0.00,Wunderground v.1.15,2014-12-17 07:39:00,
2014-12-17 02:44:00,34.6,34.1,29.92,NNE,26,1.0,5.0,98,0.00,,,0.00,Wunderground v.1.15,2014-12-17 07:44:00,
2014-12-17 02:49:00,34.6,34.1,29.92,NNE,30,1.0,5.0,98,0.00,,,0.00,Wunderground v.1.15,2014-12-17 07:49:00,
2014-12-17 02:54:00,34.6,34.1,29.92,NNW,348,2.0,5.0,98,0.00,,,0.00,Wunderground v.1.15,2014-12-17 07:54:00,
2014-12-17 02:59:00,34.6,34.1,29.92,NE,34,1.0,6.0,98,0.00,,,0.00,Wunderground v.1.15,2014-12-17 07:59:00,
2014-12-17 03:04:00,34.6,34.1,29.92,NNE,28,2.0,5.0,98,0.00,,,0.00,Wunderground v.1.15,2014-12-17 08:04:00,
2014-12-17 03:09:00,34.7,34.2,29.92,NNE,21,3.0,5.0,98,0.00,,,0.00,Wunderground v.1.15,2014-12-17 08:09:00,
2014-12-17 03:14:00,34.7,34.2,29.91,North,355,1.0,5.0,98,0.00,,,0.00,Wunderground v.1.15,2014-12-17 08:14:00,
2014-12-17 03:19:00,34.7,34.2,29.91,North,360,2.0,5.0,98,0.00,,,0.00,Wunderground v.1.15,2014-12-17 08:19:00,
2014-12-17 03:24:00,34.8,34.3,29.91,NE,40,2.0,5.0,98,0.00,,,0.00,Wunderground v.1.15,2014-12-17 08:24:00,
2014-12-17 03:29:00,34.8,34.3,29.90,North,10,0.0,5.0,98,0.00,,,0.00,Wunderground v.1.15,2014-12-17 08:29:00,
2014-12-17 03:34:00,34.8,34.3,29.90,North,5,2.0,4.0,98,0.00,,,0.00,Wunderground v.1.15,2014-12-17 08:34:00,
2014-12-17 03:39:00,34.9,34.4,29.90,NE,42,2.0,6.0,98,0.00,,,0.00,Wunderground v.1.15,2014-12-17 08:39:00,
2014-12-17 03:44:00,34.9,34.4,29.89,North,355,4.0,6.0,98,0.00,,,0.00,Wunderground v.1.15,2014-12-17 08:44:00,
2014-12-17 03:49:00,34.9,34.4,29.89,NNE,14,3.0,6.0,98,0.00,,,0.00,Wunderground v.1.15,2014-12-17 08:49:00,
2014-12-17 03:54:00,35.0,34.5,29.89,NE,43,2.0,4.0,98,0.00,,,0.00,Wunderground v.1.15,2014-12-17 08:54:00,
2014-12-17 03:59:00,34.9,34.4,29.89,NNE,28,2.0,6.0,98,0.00,,,0.00,Wunderground v.1.15,2014-12-17 08:59:00,
2014-12-17 04:04:00,34.9,34.4,29.89,North,360,0.0,5.0,98,0.00,,,0.00,Wunderground v.1.15,2014-12-17 09:04:00,
2014-12-17 04:09:00,34.9,34.4,29.89,North,11,6.0,8.0,98,0.00,,,0.00,Wunderground v.1.15,2014-12-17 09:09:00,
2014-12-17 04:14:00,35.0,34.5,29.89,NNE,26,2.0,5.0,98,0.00,,,0.00,Wunderground v.1.15,2014-12-17 09:14:00,
2014-12-17 04:19:00,35.0,34.5,29.88,NNE,29,2.0,7.0,98,0.00,,,0.00,Wunderground v.1.15,2014-12-17 09:19:00,
2014-12-17 04:24:00,35.0,34.5,29.88,North,355,4.0,5.0,98,0.00,,,0.00,Wunderground v.1.15,2014-12-17 09:24:00,
2014-12-17 04:29:00,35.0,34.5,29.88,NNE,21,3.0,8.0,98,0.00,,,0.00,Wunderground v.1.15,2014-12-17 09:29:00,
2014-12-17 04:34:00,35.0,34.5,29.88,NNE,32,4.0,8.0,98,0.00,,,0.00,Wunderground v.1.15,2014-12-17 09:34:00,
2014-12-17 04:39:00,35.0,34.5,29.87,NE,34,1.0,8.0,98,0.00,,,0.00,Wunderground v.1.15,2014-12-17 09:39:00,
2014-12-17 04:44:00,35.0,34.5,29.87,NNE,13,3.0,7.0,98,0.00,,,0.00,Wunderground v.1.15,2014-12-17 09:44:00,
2014-12-17 04:49:00,35.0,34.5,29.87,North,360,2.0,7.0,98,0.00,,,0.00,Wunderground v.1.15,2014-12-17 09:49:00,
2014-12-17 04:54:00,35.0,34.5,29.87,North,5,1.0,6.0,98,0.00,,,0.00,Wunderground v.1.15,2014-12-17 09:54:00,
2014-12-17 04:59:00,35.1,34.6,29.87,NE,44,3.0,7.0,98,0.00,,,0.00,Wunderground v.1.15,2014-12-17 09:59:00,
2014-12-17 05:04:00,35.1,34.6,29.86,NNW,331,2.0,7.0,98,0.00,,,0.00,Wunderground v.1.15,2014-12-17 10:04:00,
2014-12-17 05:09:00,35.1,34.6,29.86,NE,44,4.0,9.0,98,0.00,,,0.00,Wunderground v.1.15,2014-12-17 10:09:00,
2014-12-17 05:14:00,35.1,34.6,29.86,NE,44,2.0,6.0,98,0.00,,,0.00,Wunderground v.1.15,2014-12-17 10:14:00,
2014-12-17 05:19:00,35.1,34.6,29.86,North,5,4.0,7.0,98,0.00,,,0.00,Wunderground v.1.15,2014-12-17 10:19:00,
2014-12-17 05:24:00,35.1,34.6,29.86,NNE,15,6.0,7.0,98,0.00,,,0.00,Wunderground v.1.15,2014-12-17 10:24:00,
2014-12-17 05:29:00,35.1,34.6,29.86,NE,36,2.0,7.0,98,0.00,,,0.00,Wunderground v.1.15,2014-12-17 10:29:00,
2014-12-17 05:34:00,35.1,34.6,29.86,NNE,27,4.0,5.0,98,0.00,,,0.00,Wunderground v.1.15,2014-12-17 10:34:00,
2014-12-17 05:39:00,35.1,34.6,29.86,NE,34,4.0,7.0,98,0.00,,,0.00,Wunderground v.1.15,2014-12-17 10:39:00,
2014-12-17 05:44:00,35.1,34.6,29.86,NE,47,0.0,6.0,98,0.00,,,0.00,Wunderground v.1.15,2014-12-17 10:44:00,
2014-12-17 05:49:00,35.2,34.7,29.86,ENE,57,3.0,6.0,98,0.00,,,0.00,Wunderground v.1.15,2014-12-17 10:49:00,
2014-12-17 05:54:00,35.2,34.7,29.86,NNE,32,3.0,7.0,98,0.00,,,0.00,Wunderground v.1.15,2014-12-17 10:54:00,
2014-12-17 05:59:00,35.2,34.7,29.86,NNE,23,3.0,7.0,98,0.00,,,0.01,Wunderground v.1.15,2014-12-17 10:59:00,
2014-12-17 06:04:00,35.2,34.7,29.86,NNW,338,5.0,7.0,98,0.09,,,0.02,Wunderground v.1.15,2014-12-17 11:04:00,
2014-12-17 06:09:00,35.2,34.7,29.85,NNE,21,2.0,7.0,98,0.12,,,0.03,Wunderground v.1.15,2014-12-17 11:09:00,
2014-12-17 06:14:00,35.2,34.7,29.85,NW,305,4.0,7.0,98,0.18,,,0.04,Wunderground v.1.15,2014-12-17 11:14:00,
2014-12-17 06:19:00,35.2,34.7,29.85,North,360,0.0,7.0,98,0.09,,,0.05,Wunderground v.1.15,2014-12-17 11:19:00,
2014-12-17 06:24:00,35.3,34.8,29.85,NE,42,2.0,5.0,98,0.13,,,0.06,Wunderground v.1.15,2014-12-17 11:24:00,
2014-12-17 06:29:00,35.3,34.8,29.85,NE,38,2.0,5.0,98,0.09,,,0.07,Wunderground v.1.15,2014-12-17 11:29:00,
2014-12-17 06:34:00,35.3,34.8,29.85,NE,34,2.0,6.0,98,0.13,,,0.08,Wunderground v.1.15,2014-12-17 11:34:00,
2014-12-17 06:39:00,35.3,34.8,29.85,ENE,60,3.0,6.0,98,0.10,,,0.08,Wunderground v.1.15,2014-12-17 11:39:00,
2014-12-17 06:44:00,35.3,34.8,29.85,NE,40,2.0,9.0,98,0.09,,,0.09,Wunderground v.1.15,2014-12-17 11:44:00,
2014-12-17 06:49:00,35.3,34.8,29.85,NE,35,1.0,9.0,98,0.12,,,0.10,Wunderground v.1.15,2014-12-17 11:49:00,
2014-12-17 06:54:00,35.3,34.8,29.84,NNW,346,2.0,7.0,98,0.11,,,0.11,Wunderground v.1.15,2014-12-17 11:54:00,
2014-12-17 06:59:00,35.4,34.9,29.84,North,355,5.0,7.0,98,0.12,,,0.12,Wunderground v.1.15,2014-12-17 11:59:00,
2014-12-17 07:04:00,35.4,34.9,29.83,NNE,22,3.0,8.0,98,0.08,,,0.13,Wunderground v.1.15,2014-12-17 12:04:00,
2014-12-17 07:09:00,35.4,34.9,29.83,ENE,58,2.0,8.0,98,0.11,,,0.14,Wunderground v.1.15,2014-12-17 12:09:00,
2014-12-17 07:14:00,35.4,34.9,29.83,NE,40,3.0,7.0,98,0.13,,,0.15,Wunderground v.1.15,2014-12-17 12:14:00,
2014-12-17 07:19:00,35.5,35.0,29.82,NW,321,4.0,9.0,98,0.17,,,0.16,Wunderground v.1.15,2014-12-17 12:19:00,
2014-12-17 07:24:00,35.5,35.0,29.82,North,5,3.0,8.0,98,0.16,,,0.17,Wunderground v.1.15,2014-12-17 12:24:00,
2014-12-17 07:29:00,35.5,35.0,29.82,North,360,4.0,8.0,98,0.12,,,0.18,Wunderground v.1.15,2014-12-17 12:29:00,
2014-12-17 07:34:00,35.5,35.0,29.82,NNW,337,2.0,7.0,98,0.16,,,0.20,Wunderground v.1.15,2014-12-17 12:34:00,
2014-12-17 07:39:00,35.5,35.0,29.82,NNE,31,3.0,9.0,98,0.12,,,0.21,Wunderground v.1.15,2014-12-17 12:39:00,
2014-12-17 07:44:00,35.6,35.1,29.82,NE,36,2.0,6.0,98,0.18,,,0.22,Wunderground v.1.15,2014-12-17 12:44:00,
2014-12-17 07:49:00,35.6,35.1,29.82,NNW,331,1.0,7.0,98,0.11,,,0.23,Wunderground v.1.15,2014-12-17 12:49:00,
2014-12-17 07:54:00,35.6,35.1,29.82,NNW,329,1.0,7.0,98,0.15,,,0.24,Wunderground v.1.15,2014-12-17 12:54:00,
2014-12-17 07:59:00,35.6,35.1,29.81,NE,38,2.0,7.0,98,0.27,,,0.26,Wunderground v.1.15,2014-12-17 12:59:00,
2014-12-17 08:04:00,35.7,35.2,29.81,NNE,26,3.0,7.0,98,0.24,,,0.28,Wunderground v.1.15,2014-12-17 13:04:00,
2014-12-17 08:09:00,35.7,35.4,29.81,NNE,24,2.0,7.0,99,0.26,,,0.30,Wunderground v.1.15,2014-12-17 13:09:00,
2014-12-17 08:14:00,35.7,35.2,29.81,NE,34,2.0,5.0,98,0.17,,,0.31,Wunderground v.1.15,2014-12-17 13:14:00,
2014-12-17 08:19:00,35.7,35.2,29.81,NNW,346,5.0,8.0,98,0.18,,,0.33,Wunderground v.1.15,2014-12-17 13:19:00,
2014-12-17 08:24:00,35.8,35.5,29.81,NNE,26,4.0,6.0,99,0.26,,,0.35,Wunderground v.1.15,2014-12-17 13:24:00,
2014-12-17 08:29:00,35.9,35.6,29.80,NNE,28,4.0,6.0,99,0.38,,,0.38,Wunderground v.1.15,2014-12-17 13:29:00,
2014-12-17 08:33:00,35.9,35.6,29.80,NNE,21,3.0,6.0,99,0.31,,,0.40,Wunderground v.1.15,2014-12-17 13:33:00,
2014-12-17 08:38:00,36.0,35.7,29.80,NNW,344,4.0,6.0,99,0.31,,,0.42,Wunderground v.1.15,2014-12-17 13:38:00,
2014-12-17 08:43:00,36.0,35.5,29.80,NNW,334,5.0,6.0,98,0.27,,,0.44,Wunderground v.1.15,2014-12-17 13:43:00,
2014-12-17 08:48:00,36.1,35.6,29.79,NW,315,4.0,7.0,98,0.21,,,0.46,Wunderground v.1.15,2014-12-17 13:48:00,
2014-12-17 08:53:00,36.1,35.6,29.79,North,11,3.0,6.0,98,0.16,,,0.47,Wunderground v.1.15,2014-12-17 13:53:00,
2014-12-17 08:58:00,36.2,35.7,29.79,East,82,1.0,6.0,98,0.13,,,0.48,Wunderground v.1.15,2014-12-17 13:58:00,
2014-12-17 09:03:00,36.3,35.8,29.78,NE,35,4.0,6.0,98,0.11,,,0.49,Wunderground v.1.15,2014-12-17 14:03:00,
2014-12-17 09:08:00,36.4,36.1,29.78,North,360,5.0,6.0,99,0.11,,,0.50,Wunderground v.1.15,2014-12-17 14:08:00,
2014-12-17 09:13:00,36.5,36.2,29.78,North,5,2.0,5.0,99,0.11,,,0.51,Wunderground v.1.15,2014-12-17 14:13:00,
2014-12-17 09:18:00,36.6,36.3,29.77,NE,41,2.0,8.0,99,0.11,,,0.52,Wunderground v.1.15,2014-12-17 14:18:00,
2014-12-17 09:23:00,36.6,36.3,29.77,North,355,2.0,8.0,99,0.09,,,0.53,Wunderground v.1.15,2014-12-17 14:23:00,
2014-12-17 09:28:00,36.8,36.5,29.77,ENE,60,4.0,8.0,99,0.10,,,0.53,Wunderground v.1.15,2014-12-17 14:28:00,
2014-12-17 09:33:00,37.0,36.7,29.76,North,9,1.0,5.0,99,0.10,,,0.54,Wunderground v.1.15,2014-12-17 14:33:00,
2014-12-17 09:38:00,37.1,36.8,29.76,North,360,3.0,8.0,99,0.06,,,0.54,Wunderground v.1.15,2014-12-17 14:38:00,
2014-12-17 09:43:00,37.3,37.0,29.76,NE,38,5.0,8.0,99,0.05,,,0.55,Wunderground v.1.15,2014-12-17 14:43:00,
2014-12-17 09:48:00,37.5,37.2,29.76,North,5,4.0,11.0,99,0.20,,,0.56,Wunderground v.1.15,2014-12-17 14:48:00,
2014-12-17 09:53:00,37.6,37.3,29.75,NNW,345,6.0,7.0,99,0.13,,,0.58,Wunderground v.1.15,2014-12-17 14:53:00,
2014-12-17 09:58:00,37.8,37.5,29.75,North,350,5.0,7.0,99,0.15,,,0.59,Wunderground v.1.15,2014-12-17 14:58:00,
2014-12-17 10:03:00,37.9,37.6,29.75,NE,43,4.0,5.0,99,0.13,,,0.60,Wunderground v.1.15,2014-12-17 15:03:00,
2014-12-17 10:08:00,37.9,37.6,29.75,NNE,12,2.0,9.0,99,0.13,,,0.61,Wunderground v.1.15,2014-12-17 15:08:00,
2014-12-17 10:13:00,38.0,37.7,29.75,NNE,32,4.0,8.0,99,0.15,,,0.62,Wunderground v.1.15,2014-12-17 15:13:00,
2014-12-17 10:18:00,38.1,37.8,29.75,North,350,4.0,8.0,99,0.11,,,0.63,Wunderground v.1.15,2014-12-17 15:18:00,
2014-12-17 10:23:00,38.0,37.7,29.75,NNW,344,2.0,6.0,99,0.12,,,0.64,Wunderground v.1.15,2014-12-17 15:23:00,
2014-12-17 10:28:00,38.1,37.8,29.75,NW,309,6.0,9.0,99,0.10,,,0.65,Wunderground v.1.15,2014-12-17 15:28:00,
2014-12-17 10:33:00,38.2,37.9,29.74,WNW,301,6.0,9.0,99,0.13,,,0.66,Wunderground v.1.15,2014-12-17 15:33:00,
2014-12-17 10:38:00,38.3,38.0,29.74,North,5,3.0,9.0,99,0.15,,,0.68,Wunderground v.1.15,2014-12-17 15:38:00,
2014-12-17 10:43:00,38.4,38.1,29.74,North,355,7.0,8.0,99,0.10,,,0.68,Wunderground v.1.15,2014-12-17 15:43:00,
2014-12-17 10:48:00,38.4,38.1,29.74,WNW,293,4.0,9.0,99,0.09,,,0.69,Wunderground v.1.15,2014-12-17 15:48:00,
2014-12-17 10:53:00,38.4,38.1,29.74,North,5,3.0,9.0,99,0.07,,,0.70,Wunderground v.1.15,2014-12-17 15:53:00,
2014-12-17 10:58:00,38.4,38.1,29.74,NW,326,4.0,9.0,99,0.13,,,0.71,Wunderground v.1.15,2014-12-17 15:58:00,
2014-12-17 11:03:00,38.4,38.1,29.73,NNE,24,1.0,8.0,99,0.33,,,0.74,Wunderground v.1.15,2014-12-17 16:03:00,
2014-12-17 11:08:00,38.3,38.0,29.73,NW,324,2.0,10.0,99,0.26,,,0.76,Wunderground v.1.15,2014-12-17 16:08:00,
2014-12-17 11:13:00,38.3,38.0,29.73,NE,40,4.0,9.0,99,0.24,,,0.78,Wunderground v.1.15,2014-12-17 16:13:00,
2014-12-17 11:18:00,38.3,38.0,29.73,NW,322,10.0,11.0,99,0.24,,,0.80,Wunderground v.1.15,2014-12-17 16:18:00,
2014-12-17 11:23:00,38.4,38.1,29.72,NE,39,3.0,9.0,99,0.28,,,0.82,Wunderground v.1.15,2014-12-17 16:23:00,
2014-12-17 11:28:00,38.4,38.1,29.72,North,350,7.0,11.0,99,0.26,,,0.85,Wunderground v.1.15,2014-12-17 16:28:00,
2014-12-17 11:33:00,38.5,38.2,29.71,NNW,346,2.0,7.0,99,0.21,,,0.87,Wunderground v.1.15,2014-12-17 16:33:00,
2014-12-17 11:38:00,38.6,38.3,29.71,North,5,6.0,8.0,99,0.20,,,0.88,Wunderground v.1.15,2014-12-17 16:38:00,
2014-12-17 11:43:00,38.7,38.4,29.71,North,351,5.0,8.0,99,0.09,,,0.89,Wunderground v.1.15,2014-12-17 16:43:00,
2014-12-17 11:48:00,38.7,38.4,29.71,North,9,5.0,10.0,99,0.09,,,0.89,Wunderground v.1.15,2014-12-17 16:48:00,
2014-12-17 11:53:00,38.8,38.5,29.70,NNE,33,4.0,11.0,99,0.08,,,0.90,Wunderground v.1.15,2014-12-17 16:53:00,
2014-12-17 11:58:00,38.9,38.6,29.70,NNW,348,5.0,11.0,99,0.07,,,0.90,Wunderground v.1.15,2014-12-17 16:58:00,
2014-12-17 12:03:00,39.1,38.8,29.69,NNE,28,6.0,11.0,99,0.06,,,0.91,Wunderground v.1.15,2014-12-17 17:03:00,
2014-12-17 12:08:00,39.1,38.8,29.69,NNE,20,4.0,11.0,99,0.10,,,0.92,Wunderground v.1.15,2014-12-17 17:08:00,
2014-12-17 12:13:00,39.2,38.9,29.69,NNE,17,2.0,11.0,99,0.20,,,0.94,Wunderground v.1.15,2014-12-17 17:13:00,
2014-12-17 12:18:00,39.3,39.0,29.69,NW,308,8.0,12.0,99,0.16,,,0.95,Wunderground v.1.15,2014-12-17 17:18:00,
2014-12-17 12:23:00,39.3,39.0,29.69,North,5,5.0,13.0,99,0.14,,,0.96,Wunderground v.1.15,2014-12-17 17:23:00,
2014-12-17 12:28:00,39.3,39.0,29.68,WNW,290,4.0,13.0,99,0.06,,,0.96,Wunderground v.1.15,2014-12-17 17:28:00,
2014-12-17 12:33:00,39.3,39.0,29.68,North,355,7.0,8.0,99,0.06,,,0.97,Wunderground v.1.15,2014-12-17 17:33:00,
2014-12-17 12:38:00,39.3,39.0,29.68,NNW,348,5.0,10.0,99,0.06,,,0.97,Wunderground v.1.15,2014-12-17 17:38:00,
2014-12-17 12:43:00,39.3,39.0,29.68,NNW,342,8.0,12.0,99,0.04,,,0.97,Wunderground v.1.15,2014-12-17 17:43:00,
2014-12-17 12:48:00,39.3,39.0,29.67,NW,324,10.0,12.0,99,0.04,,,0.98,Wunderground v.1.15,2014-12-17 17:48:00,
2014-12-17 12:53:00,39.5,39.2,29.67,NNW,334,7.0,9.0,99,0.04,,,0.98,Wunderground v.1.15,2014-12-17 17:53:00,
2014-12-17 12:58:00,39.6,39.3,29.67,WNW,303,8.0,15.0,99,0.04,,,0.98,Wunderground v.1.15,2014-12-17 17:58:00,
2014-12-17 13:03:00,39.7,39.4,29.67,NNW,348,4.0,11.0,99,0.00,,,0.98,Wunderground v.1.15,2014-12-17 18:03:00,
2014-12-17 13:08:00,39.7,39.4,29.67,NNW,334,2.0,16.0,99,0.00,,,0.98,Wunderground v.1.15,2014-12-17 18:08:00,
2014-12-17 13:13:00,39.8,39.5,29.66,North,5,4.0,14.0,99,0.00,,,0.98,Wunderground v.1.15,2014-12-17 18:13:00,
2014-12-17 13:18:00,39.8,39.5,29.66,NNW,345,7.0,17.0,99,0.00,,,0.99,Wunderground v.1.15,2014-12-17 18:18:00,
2014-12-17 13:23:00,39.8,39.5,29.66,NE,49,8.0,11.0,99,0.00,,,0.99,Wunderground v.1.15,2014-12-17 18:23:00,
2014-12-17 13:28:00,39.8,39.5,29.66,NW,323,14.0,14.0,99,0.00,,,0.99,Wunderground v.1.15,2014-12-17 18:28:00,
2014-12-17 13:33:00,39.8,39.3,29.66,NNE,24,6.0,13.0,98,0.00,,,0.99,Wunderground v.1.15,2014-12-17 18:33:00,
2014-12-17 13:38:00,39.8,39.3,29.66,NNW,344,9.0,13.0,98,0.00,,,0.99,Wunderground v.1.15,2014-12-17 18:38:00,
2014-12-17 13:43:00,39.8,39.3,29.66,NNE,13,8.0,12.0,98,0.00,,,0.99,Wunderground v.1.15,2014-12-17 18:43:00,
2014-12-17 13:48:00,39.8,39.5,29.66,NNW,329,5.0,15.0,99,0.00,,,0.99,Wunderground v.1.15,2014-12-17 18:48:00,
2014-12-17 13:53:00,39.8,39.5,29.66,NW,325,6.0,11.0,99,0.00,,,0.99,Wunderground v.1.15,2014-12-17 18:53:00,
2014-12-17 13:58:00,39.8,39.5,29.65,NNW,339,9.0,11.0,99,0.00,,,0.99,Wunderground v.1.15,2014-12-17 18:58:00,
2014-12-17 14:03:00,39.8,39.5,29.66,North,5,9.0,13.0,99,0.00,,,0.99,Wunderground v.1.15,2014-12-17 19:03:00,
2014-12-17 14:08:00,39.8,39.5,29.66,North,5,4.0,13.0,99,0.00,,,0.99,Wunderground v.1.15,2014-12-17 19:08:00,
2014-12-17 14:13:00,39.7,39.2,29.65,NE,47,7.0,9.0,98,0.00,,,0.99,Wunderground v.1.15,2014-12-17 19:13:00,
2014-12-17 14:18:00,39.7,39.2,29.65,NNW,333,2.0,20.0,98,0.00,,,0.99,Wunderground v.1.15,2014-12-17 19:18:00,
2014-12-17 14:23:00,39.7,39.2,29.66,NNE,28,3.0,11.0,98,0.00,,,0.99,Wunderground v.1.15,2014-12-17 19:23:00,
2014-12-17 14:28:00,39.6,39.1,29.66,NNW,340,7.0,11.0,98,0.00,,,0.99,Wunderground v.1.15,2014-12-17 19:28:00,
2014-12-17 14:33:00,39.6,39.1,29.67,NNW,338,8.0,13.0,98,0.00,,,0.99,Wunderground v.1.15,2014-12-17 19:33:00,
2014-12-17 14:38:00,39.7,39.2,29.67,NNW,338,4.0,13.0,98,0.00,,,0.99,Wunderground v.1.15,2014-12-17 19:38:00,
2014-12-17 14:43:00,39.7,39.2,29.67,NNE,20,7.0,11.0,98,0.00,,,0.99,Wunderground v.1.15,2014-12-17 19:43:00,
2014-12-17 14:48:00,39.6,39.1,29.67,NW,316,1.0,13.0,98,0.00,,,0.99,Wunderground v.1.15,2014-12-17 19:48:00,
2014-12-17 14:53:00,39.6,39.1,29.67,WNW,300,6.0,15.0,98,0.00,,,0.99,Wunderground v.1.15,2014-12-17 19:53:00,
2014-12-17 14:58:00,39.6,39.1,29.67,NNW,328,1.0,15.0,98,0.00,,,0.99,Wunderground v.1.15,2014-12-17 19:58:00,
2014-12-17 15:03:00,39.6,39.1,29.67,NW,325,9.0,12.0,98,0.00,,,1.00,Wunderground v.1.15,2014-12-17 20:03:00,
2014-12-17 15:08:00,39.6,39.1,29.67,WNW,288,4.0,12.0,98,0.00,,,1.00,Wunderground v.1.15,2014-12-17 20:08:00,
2014-12-17 15:13:00,39.5,39.0,29.67,North,355,5.0,14.0,98,0.00,,,1.00,Wunderground v.1.15,2014-12-17 20:13:00,
2014-12-17 15:18:00,39.5,39.0,29.67,North,360,5.0,14.0,98,0.00,,,1.00,Wunderground v.1.15,2014-12-17 20:18:00,
2014-12-17 15:23:00,39.5,39.0,29.67,NW,316,11.0,16.0,98,0.00,,,1.00,Wunderground v.1.15,2014-12-17 20:23:00,
2014-12-17 15:28:00,39.5,39.0,29.67,North,350,6.0,16.0,98,0.00,,,1.00,Wunderground v.1.15,2014-12-17 20:28:00,
2014-12-17 15:33:00,39.5,39.0,29.67,NNW,346,8.0,13.0,98,0.00,,,1.00,Wunderground v.1.15,2014-12-17 20:33:00,
2014-12-17 15:38:00,39.4,38.9,29.67,NW,314,6.0,14.0,98,0.00,,,1.01,Wunderground v.1.15,2014-12-17 20:38:00,
2014-12-17 15:43:00,39.4,38.9,29.67,NW,325,8.0,14.0,98,0.00,,,1.01,Wunderground v.1.15,2014-12-17 20:43:00,
2014-12-17 15:48:00,39.3,38.8,29.67,NW,315,1.0,15.0,98,0.00,,,1.01,Wunderground v.1.15,2014-12-17 20:48:00,
2014-12-17 15:53:00,39.2,38.7,29.68,NNE,19,9.0,17.0,98,0.00,,,1.01,Wunderground v.1.15,2014-12-17 20:53:00,
2014-12-17 15:58:00,39.1,38.6,29.68,NNW,341,4.0,17.0,98,0.00,,,1.02,Wunderground v.1.15,2014-12-17 20:58:00,
2014-12-17 16:03:00,39.0,38.5,29.67,NNW,328,4.0,12.0,98,0.00,,,1.02,Wunderground v.1.15,2014-12-17 21:03:00,
2014-12-17 16:08:00,38.9,38.4,29.67,NE,43,5.0,15.0,98,0.00,,,1.02,Wunderground v.1.15,2014-12-17 21:08:00,
2014-12-17 16:13:00,38.8,38.3,29.67,NNW,347,8.0,12.0,98,0.00,,,1.02,Wunderground v.1.15,2014-12-17 21:13:00,
2014-12-17 16:18:00,38.8,38.3,29.68,North,350,6.0,14.0,98,0.00,,,1.02,Wunderground v.1.15,2014-12-17 21:18:00,
2014-12-17 16:23:00,38.8,38.3,29.68,NW,325,5.0,15.0,98,0.00,,,1.02,Wunderground v.1.15,2014-12-17 21:23:00,
2014-12-17 16:28:00,38.7,38.2,29.68,North,360,11.0,15.0,98,0.00,,,1.02,Wunderground v.1.15,2014-12-17 21:28:00,
2014-12-17 16:33:00,38.6,38.1,29.68,NNW,341,7.0,14.0,98,0.00,,,1.03,Wunderground v.1.15,2014-12-17 21:33:00,
2014-12-17 16:38:00,38.5,38.0,29.68,North,9,6.0,14.0,98,0.00,,,1.03,Wunderground v.1.15,2014-12-17 21:38:00,
2014-12-17 16:43:00,38.5,38.0,29.68,North,5,9.0,12.0,98,0.00,,,1.03,Wunderground v.1.15,2014-12-17 21:43:00,
2014-12-17 16:48:00,38.4,37.9,29.68,NNW,334,7.0,13.0,98,0.00,,,1.03,Wunderground v.1.15,2014-12-17 21:48:00,
2014-12-17 16:53:00,38.3,37.8,29.68,NNW,344,8.0,12.0,98,0.00,,,1.03,Wunderground v.1.15,2014-12-17 21:53:00,
2014-12-17 16:58:00,38.3,37.8,29.69,NNE,24,2.0,14.0,98,0.00,,,1.03,Wunderground v.1.15,2014-12-17 21:58:00,
2014-12-17 17:03:00,38.2,37.7,29.69,NNE,30,6.0,12.0,98,0.00,,,1.03,Wunderground v.1.15,2014-12-17 22:03:00,
2014-12-17 17:08:00,38.1,37.6,29.69,NNE,18,2.0,13.0,98,0.00,,,1.03,Wunderground v.1.15,2014-12-17 22:08:00,
2014-12-17 17:13:00,38.0,37.5,29.69,North,5,4.0,13.0,98,0.00,,,1.03,Wunderground v.1.15,2014-12-17 22:13:00,
2014-12-17 17:17:00,38.0,37.2,29.69,NNE,32,3.0,13.0,97,0.00,,,1.03,Wunderground v.1.15,2014-12-17 22:17:00,
2014-12-17 17:22:00,37.9,37.1,29.69,NE,55,6.0,10.0,97,0.00,,,1.03,Wunderground v.1.15,2014-12-17 22:22:00,
2014-12-17 17:27:00,37.7,36.9,29.69,NE,34,3.0,10.0,97,0.00,,,1.03,Wunderground v.1.15,2014-12-17 22:27:00,
2014-12-17 17:32:00,37.7,37.2,29.69,NE,41,4.0,8.0,98,0.00,,,1.03,Wunderground v.1.15,2014-12-17 22:32:00,
2014-12-17 17:37:00,37.6,37.1,29.69,NNE,26,3.0,10.0,98,0.00,,,1.03,Wunderground v.1.15,2014-12-17 22:37:00,
2014-12-17 17:42:00,37.6,37.1,29.69,NNE,25,7.0,8.0,98,0.00,,,1.03,Wunderground v.1.15,2014-12-17 22:42:00,
2014-12-17 17:47:00,37.5,37.0,29.69,NE,34,3.0,8.0,98,0.00,,,1.03,Wunderground v.1.15,2014-12-17 22:47:00,
2014-12-17 17:52:00,37.5,37.0,29.69,NE,53,2.0,5.0,98,0.00,,,1.03,Wunderground v.1.15,2014-12-17 22:52:00,
2014-12-17 17:57:00,37.4,36.9,29.69,North,360,5.0,10.0,98,0.00,,,1.03,Wunderground v.1.15,2014-12-17 22:57:00,
2014-12-17 18:02:00,37.5,37.0,29.69,NW,325,2.0,9.0,98,0.00,,,1.03,Wunderground v.1.15,2014-12-17 23:02:00,
2014-12-17 18:07:00,37.4,36.6,29.69,WNW,289,4.0,9.0,97,0.00,,,1.03,Wunderground v.1.15,2014-12-17 23:07:00,
2014-12-17 18:12:00,37.4,36.6,29.69,NW,322,2.0,7.0,97,0.00,,,1.03,Wunderground v.1.15,2014-12-17 23:12:00,
2014-12-17 18:17:00,37.4,36.6,29.69,NNW,336,2.0,7.0,97,0.00,,,1.03,Wunderground v.1.15,2014-12-17 23:17:00,
2014-12-17 18:22:00,37.3,36.5,29.70,NW,316,9.0,9.0,97,0.00,,,1.03,Wunderground v.1.15,2014-12-17 23:22:00,
2014-12-17 18:27:00,37.3,36.5,29.69,North,355,8.0,9.0,97,0.00,,,1.03,Wunderground v.1.15,2014-12-17 23:27:00,
2014-12-17 18:32:00,37.3,36.8,29.70,NNW,348,5.0,5.0,98,0.00,,,1.03,Wunderground v.1.15,2014-12-17 23:32:00,
2014-12-17 18:37:00,37.2,36.7,29.70,NW,321,8.0,11.0,98,0.00,,,1.03,Wunderground v.1.15,2014-12-17 23:37:00,
2014-12-17 18:42:00,37.2,36.7,29.69,WNW,284,5.0,7.0,98,0.00,,,1.03,Wunderground v.1.15,2014-12-17 23:42:00,
2014-12-17 18:47:00,37.2,36.7,29.69,NNE,21,3.0,11.0,98,0.00,,,1.03,Wunderground v.1.15,2014-12-17 23:47:00,
2014-12-17 18:52:00,37.2,36.7,29.69,NNW,328,5.0,8.0,98,0.00,,,1.03,Wunderground v.1.15,2014-12-17 23:52:00,
2014-12-17 18:57:00,37.2,36.7,29.69,North,5,2.0,11.0,98,0.00,,,1.03,Wunderground v.1.15,2014-12-17 23:57:00,
2014-12-17 19:02:00,37.2,36.7,29.69,North,5,5.0,13.0,98,0.00,,,1.03,Wunderground v.1.15,2014-12-18 00:02:00,
2014-12-17 19:07:00,37.2,36.7,29.69,NNW,331,4.0,13.0,98,0.00,,,1.03,Wunderground v.1.15,2014-12-18 00:07:00,
2014-12-17 19:12:00,37.2,36.7,29.69,NNE,22,2.0,6.0,98,0.00,,,1.03,Wunderground v.1.15,2014-12-18 00:12:00,
2014-12-17 19:17:00,37.2,36.7,29.69,NNE,13,0.0,9.0,98,0.00,,,1.03,Wunderground v.1.15,2014-12-18 00:17:00,
2014-12-17 19:22:00,37.1,36.6,29.69,NNE,28,4.0,11.0,98,0.00,,,1.03,Wunderground v.1.15,2014-12-18 00:22:00,
2014-12-17 19:27:00,37.1,36.6,29.69,North,5,3.0,11.0,98,0.00,,,1.03,Wunderground v.1.15,2014-12-18 00:27:00,
2014-12-17 19:32:00,37.0,36.5,29.68,North,355,6.0,11.0,98,0.00,,,1.03,Wunderground v.1.15,2014-12-18 00:32:00,
2014-12-17 19:37:00,37.0,36.5,29.68,North,360,4.0,11.0,98,0.00,,,1.03,Wunderground v.1.15,2014-12-18 00:37:00,
2014-12-17 19:42:00,36.9,36.4,29.68,NNW,334,2.0,8.0,98,0.00,,,1.03,Wunderground v.1.15,2014-12-18 00:42:00,
2014-12-17 19:47:00,36.9,36.1,29.68,WNW,300,5.0,8.0,97,0.00,,,1.03,Wunderground v.1.15,2014-12-18 00:47:00,
2014-12-17 19:52:00,37.0,36.2,29.68,NNE,26,1.0,11.0,97,0.00,,,1.03,Wunderground v.1.15,2014-12-18 00:52:00,
2014-12-17 19:57:00,37.0,36.5,29.69,North,5,6.0,11.0,98,0.00,,,1.03,Wunderground v.1.15,2014-12-18 00:57:00,
2014-12-17 20:02:00,37.0,36.5,29.69,NNW,329,4.0,7.0,98,0.00,,,1.03,Wunderground v.1.15,2014-12-18 01:02:00,
2014-12-17 20:07:00,37.0,36.5,29.68,NW,322,4.0,10.0,98,0.00,,,1.03,Wunderground v.1.15,2014-12-18 01:07:00,
2014-12-17 20:12:00,37.0,36.5,29.68,NNW,331,5.0,11.0,98,0.00,,,1.03,Wunderground v.1.15,2014-12-18 01:12:00,
2014-12-17 20:17:00,37.0,36.5,29.68,NW,316,2.0,11.0,98,0.00,,,1.03,Wunderground v.1.15,2014-12-18 01:17:00,
2014-12-17 20:22:00,37.1,36.6,29.68,NNW,329,4.0,8.0,98,0.00,,,1.03,Wunderground v.1.15,2014-12-18 01:22:00,
2014-12-17 20:27:00,37.1,36.6,29.68,WNW,303,5.0,8.0,98,0.00,,,1.03,Wunderground v.1.15,2014-12-18 01:27:00,
2014-12-17 20:32:00,37.0,36.5,29.68,North,350,5.0,6.0,98,0.00,,,1.03,Wunderground v.1.15,2014-12-18 01:32:00,
2014-12-17 20:37:00,37.0,36.2,29.68,NNW,347,2.0,6.0,97,0.00,,,1.03,Wunderground v.1.15,2014-12-18 01:37:00,
2014-12-17 20:42:00,37.0,36.2,29.68,NNW,327,1.0,6.0,97,0.00,,,1.03,Wunderground v.1.15,2014-12-18 01:42:00,
2014-12-17 20:47:00,36.9,36.1,29.68,North,360,3.0,8.0,97,0.00,,,1.03,Wunderground v.1.15,2014-12-18 01:47:00,
2014-12-17 20:52:00,36.9,36.1,29.68,NNW,332,4.0,7.0,97,0.00,,,1.03,Wunderground v.1.15,2014-12-18 01:52:00,
2014-12-17 20:57:00,36.9,36.1,29.68,NNW,344,4.0,7.0,97,0.00,,,1.03,Wunderground v.1.15,2014-12-18 01:57:00,
2014-12-17 21:02:00,36.9,36.1,29.67,North,355,1.0,6.0,97,0.00,,,1.03,Wunderground v.1.15,2014-12-18 02:02:00,
2014-12-17 21:07:00,36.9,36.1,29.67,NW,312,2.0,6.0,97,0.00,,,1.03,Wunderground v.1.15,2014-12-18 02:07:00,
2014-12-17 21:12:00,36.9,36.1,29.67,WNW,294,1.0,6.0,97,0.00,,,1.03,Wunderground v.1.15,2014-12-18 02:12:00,
2014-12-17 21:17:00,36.9,36.1,29.67,NW,323,2.0,8.0,97,0.00,,,1.03,Wunderground v.1.15,2014-12-18 02:17:00,
2014-12-17 21:22:00,36.9,36.1,29.67,NNW,332,7.0,8.0,97,0.00,,,1.03,Wunderground v.1.15,2014-12-18 02:22:00,
2014-12-17 21:27:00,36.9,36.1,29.67,NW,317,5.0,8.0,97,0.00,,,1.03,Wunderground v.1.15,2014-12-18 02:27:00,
2014-12-17 21:32:00,36.9,36.1,29.67,NNW,343,5.0,7.0,97,0.00,,,1.03,Wunderground v.1.15,2014-12-18 02:32:00,
2014-12-17 21:37:00,36.9,36.1,29.66,NW,308,6.0,8.0,97,0.00,,,1.03,Wunderground v.1.15,2014-12-18 02:37:00,
2014-12-17 21:42:00,36.8,36.0,29.66,NW,318,5.0,7.0,97,0.00,,,1.03,Wunderground v.1.15,2014-12-18 02:42:00,
2014-12-17 21:47:00,36.7,35.9,29.66,NW,313,4.0,7.0,97,0.00,,,1.03,Wunderground v.1.15,2014-12-18 02:47:00,
2014-12-17 21:52:00,36.7,35.9,29.66,WNW,299,1.0,6.0,97,0.00,,,1.03,Wunderground v.1.15,2014-12-18 02:52:00,
2014-12-17 21:57:00,36.8,36.0,29.66,WNW,299,2.0,8.0,97,0.00,,,1.03,Wunderground v.1.15,2014-12-18 02:57:00,
2014-12-17 22:02:00,36.8,36.0,29.66,NW,307,4.0,4.0,97,0.00,,,1.03,Wunderground v.1.15,2014-12-18 03:02:00,
2014-12-17 22:07:00,36.8,36.0,29.66,NW,310,2.0,5.0,97,0.00,,,1.03,Wunderground v.1.15,2014-12-18 03:07:00,
2014-12-17 22:12:00,36.8,36.0,29.66,NW,305,1.0,2.0,97,0.00,,,1.03,Wunderground v.1.15,2014-12-18 03:12:00,
2014-12-17 22:17:00,36.8,36.0,29.66,NW,317,4.0,6.0,97,0.00,,,1.03,Wunderground v.1.15,2014-12-18 03:17:00,
2014-12-17 22:22:00,36.8,36.0,29.66,NW,317,5.0,6.0,97,0.00,,,1.03,Wunderground v.1.15,2014-12-18 03:22:00,
2014-12-17 22:27:00,36.8,36.0,29.66,NNW,332,0.0,6.0,97,0.00,,,1.03,Wunderground v.1.15,2014-12-18 03:27:00,
2014-12-17 22:32:00,36.8,36.0,29.66,NNW,332,0.0,1.0,97,0.00,,,1.03,Wunderground v.1.15,2014-12-18 03:32:00,
2014-12-17 22:37:00,36.7,35.9,29.66,NNW,332,1.0,1.0,97,0.00,,,1.03,Wunderground v.1.15,2014-12-18 03:37:00,
2014-12-17 22:42:00,36.6,35.8,29.66,WNW,288,2.0,4.0,97,0.00,,,1.03,Wunderground v.1.15,2014-12-18 03:42:00,
2014-12-17 22:47:00,36.4,35.6,29.66,WNW,288,2.0,4.0,97,0.00,,,1.03,Wunderground v.1.15,2014-12-18 03:47:00,
2014-12-17 22:52:00,36.3,35.5,29.66,WNW,288,2.0,4.0,97,0.00,,,1.03,Wunderground v.1.15,2014-12-18 03:52:00,
2014-12-17 22:57:00,36.2,35.4,29.66,WNW,288,0.0,4.0,97,0.00,,,1.03,Wunderground v.1.15,2014-12-18 03:57:00,
2014-12-17 23:02:00,36.1,35.3,29.66,WNW,288,4.0,4.0,97,0.00,,,1.03,Wunderground v.1.15,2014-12-18 04:02:00,
2014-12-17 23:07:00,36.0,35.2,29.66,West,278,2.0,4.0,97,0.00,,,1.03,Wunderground v.1.15,2014-12-18 04:07:00,
2014-12-17 23:12:00,35.9,35.1,29.66,West,278,0.0,2.0,97,0.00,,,1.03,Wunderground v.1.15,2014-12-18 04:12:00,
2014-12-17 23:17:00,35.9,35.1,29.66,West,278,2.0,4.0,97,0.00,,,1.03,Wunderground v.1.15,2014-12-18 04:17:00,
2014-12-17 23:22:00,35.8,35.0,29.66,West,278,2.0,2.0,97,0.00,,,1.03,Wunderground v.1.15,2014-12-18 04:22:00,
2014-12-17 23:27:00,35.7,34.9,29.66,West,277,0.0,4.0,97,0.00,,,1.03,Wunderground v.1.15,2014-12-18 04:27:00,
2014-12-17 23:32:00,35.7,34.9,29.66,West,277,1.0,2.0,97,0.00,,,1.03,Wunderground v.1.15,2014-12-18 04:32:00,
2014-12-17 23:37:00,35.7,34.9,29.66,West,277,0.0,2.0,97,0.00,,,1.03,Wunderground v.1.15,2014-12-18 04:37:00,